FALE

King Shaka International Airport

Durban, South Africa
METAR FALE 160500Z 02006KT 9999 SCT005 BKN011 23/21 Q1018 NOSIG
Observed Flight Rules
Dec-16 @ 05:00 UTC (51 minutes ago) Marginal Visual Flight Rules
Wind Visibility Clouds
20° at 6 knots 10,000+ meters
  • Scattered at 500' AGL
  • Broken at 1,100' AGL
Temperatures Readings
Current 23°C / 73°F
Dewpoint 21°C / 70°F
Humidity 89%
Altimeter 30.06" Hg
Pressure 1018 hPa
Elevation 109
METAR FALE 160500Z 02006KT 9999 SCT005 BKN011 23/21 Q1018 NOSIG
Observed Flight Rules
Dec-16 @ 05:00 UTC
(51 minutes ago)
MVFR
Wind Visibility
20° at 6 knots 10,000+ meters
Clouds
  • Scattered at 500' AGL
  • Broken at 1,100' AGL
Temperature Dewpoint
23°C / 73°F 21°C / 70°F
Humidity Altimeter Pressure
89% 30.06" Hg 1018 hPa